Time;durP1;ratioP1;P1;durP2;ratioP2;P2;SDS_P1;SDS_P2;PMS_P1;PMS_P2;Temp;Humidity;BMP_temperature;BMP_pressure;BME280_temperature;BME280_humidity;BME280_pressure;Samples;Min_cycle;Max_cycle;Signal;HPM_P1;HPM_P2
2023/03/09 00:02:17;;;;;;;1999.90;999.90;;;10.40;99.90;;;;;;5071168;28;20442;-67
2023/03/09 00:04:45;;;;;;;1999.90;999.90;;;10.30;99.90;;;;;;5070841;28;20471;-67
2023/03/09 00:07:12;;;;;;;1999.90;999.90;;;10.30;99.90;;;;;;5071441;28;20484;-68
2023/03/09 00:09:39;;;;;;;1999.90;999.90;;;10.30;99.90;;;;;;5071162;28;21149;-68
2023/03/09 00:12:06;;;;;;;1999.90;999.90;;;10.30;99.90;;;;;;5070890;28;20514;-68
2023/03/09 00:14:33;;;;;;;1999.90;999.90;;;10.40;99.90;;;;;;5070681;28;20968;-66
2023/03/09 00:17:00;;;;;;;1999.90;999.90;;;10.40;99.90;;;;;;5070802;28;20451;-68
2023/03/09 00:19:27;;;;;;;1999.90;999.90;;;10.40;99.90;;;;;;5071308;28;20459;-67
2023/03/09 00:21:56;;;;;;;1999.90;999.90;;;10.40;99.90;;;;;;5071093;28;20473;-67
2023/03/09 00:24:27;;;;;;;1999.90;999.90;;;10.40;99.90;;;;;;5070843;28;20474;-66
2023/03/09 00:26:56;;;;;;;1999.90;999.90;;;10.40;99.90;;;;;;5070785;28;20513;-66
2023/03/09 00:29:24;;;;;;;1999.90;999.90;;;10.50;99.90;;;;;;5070616;28;21018;-65
2023/03/09 00:31:51;;;;;;;1999.90;999.90;;;10.50;99.90;;;;;;5070658;28;20447;-66
2023/03/09 00:34:18;;;;;;;1999.90;999.90;;;10.60;99.90;;;;;;5070410;28;20563;-68
2023/03/09 00:36:45;;;;;;;1999.90;999.90;;;10.60;99.90;;;;;;5071124;28;20449;-67
2023/03/09 00:39:16;;;;;;;1999.90;999.90;;;10.70;99.90;;;;;;5070530;28;20447;-68
2023/03/09 00:41:43;;;;;;;1999.90;999.90;;;10.70;99.90;;;;;;5070821;28;20459;-68
2023/03/09 00:44:11;;;;;;;1999.90;999.90;;;10.70;99.90;;;;;;5070342;28;20471;-67
2023/03/09 00:46:38;;;;;;;1999.90;999.90;;;10.70;99.90;;;;;;5070283;28;20857;-66
2023/03/09 00:49:07;;;;;;;1999.90;999.90;;;10.70;99.90;;;;;;5070617;28;20443;-67
2023/03/09 00:51:36;;;;;;;1999.90;999.90;;;10.70;99.90;;;;;;5070189;28;20473;-67
2023/03/09 00:54:03;;;;;;;1999.90;999.90;;;10.70;99.90;;;;;;5069948;28;20475;-65
2023/03/09 00:56:31;;;;;;;1999.90;999.90;;;10.70;99.90;;;;;;5070199;28;20439;-67
2023/03/09 00:58:58;;;;;;;1999.90;999.90;;;10.60;99.90;;;;;;5070437;28;20469;-67
2023/03/09 01:01:25;;;;;;;1999.90;999.90;;;10.70;99.90;;;;;;5070167;28;20916;-67
2023/03/09 01:03:53;;;;;;;1999.90;999.90;;;10.60;99.90;;;;;;5069567;28;20473;-67
2023/03/09 01:06:20;;;;;;;1999.90;999.90;;;10.60;99.90;;;;;;5070033;28;20948;-67
2023/03/09 01:08:47;;;;;;;1999.90;999.90;;;10.50;99.90;;;;;;5069744;28;20458;-67
2023/03/09 01:11:16;;;;;;;1999.90;999.90;;;10.50;99.90;;;;;;5070445;28;20443;-67
2023/03/09 01:13:44;;;;;;;1999.90;999.90;;;10.50;99.90;;;;;;5069636;28;20490;-67
2023/03/09 01:16:11;;;;;;;1999.90;999.90;;;10.50;99.90;;;;;;5069976;28;20459;-67
2023/03/09 01:18:38;;;;;;;1999.90;999.90;;;10.40;99.90;;;;;;5070094;28;20462;-66
2023/03/09 01:21:06;;;;;;;1999.90;999.90;;;10.50;99.90;;;;;;5069425;28;21078;-67
2023/03/09 01:23:32;;;;;;;1999.90;999.90;;;10.40;99.90;;;;;;5068892;28;20474;-68
2023/03/09 01:25:59;;;;;;;1999.90;999.90;;;10.30;99.90;;;;;;5069621;28;20444;-67
2023/03/09 01:28:26;;;;;;;1999.90;999.90;;;10.30;99.90;;;;;;5069947;28;20487;-67
2023/03/09 01:30:54;;;;;;;1999.90;999.90;;;10.20;99.90;;;;;;5069571;28;20446;-68
2023/03/09 01:33:21;;;;;;;1999.90;999.90;;;10.10;99.90;;;;;;5069339;28;20458;-67
2023/03/09 01:35:48;;;;;;;1999.90;999.90;;;10.00;99.90;;;;;;5069611;28;20478;-67
2023/03/09 01:38:15;;;;;;;1999.90;999.90;;;9.90;99.90;;;;;;5069785;28;20454;-68
2023/03/09 01:40:46;;;;;;;1999.90;999.90;;;9.90;99.90;;;;;;5070062;28;20450;-67
2023/03/09 01:43:34;;;;;;;1999.90;999.90;;;9.90;99.90;;;;;;5069331;28;20442;-67
2023/03/09 01:46:41;;;;;;;1999.90;999.90;;;9.90;99.90;;;;;;5069557;28;20548;-66
2023/03/09 01:49:23;;;;;;;1999.90;999.90;;;9.80;99.90;;;;;;5069495;28;20945;-67
2023/03/09 01:51:57;;;;;;;1999.90;999.90;;;9.80;99.90;;;;;;5069875;28;20447;-68
2023/03/09 01:54:29;;;;;;;1999.90;999.90;;;9.80;99.90;;;;;;5068956;28;20474;-67
2023/03/09 01:57:01;;;;;;;1999.90;999.90;;;9.70;99.90;;;;;;5069557;28;21016;-68
2023/03/09 01:59:29;;;;;;;1999.90;999.90;;;9.70;99.90;;;;;;5069566;28;20453;-67
2023/03/09 02:01:56;;;;;;;1999.90;999.90;;;9.70;99.90;;;;;;5069625;28;20512;-66
2023/03/09 02:04:31;;;;;;;1999.90;999.90;;;9.80;99.90;;;;;;5069086;28;20838;-67
2023/03/09 02:07:00;;;;;;;1999.90;999.90;;;9.80;99.90;;;;;;5069196;28;21028;-66
2023/03/09 02:09:32;;;;;;;1999.90;999.90;;;9.90;99.90;;;;;;5069339;28;20451;-68
2023/03/09 02:11:59;;;;;;;1999.90;999.90;;;10.00;99.90;;;;;;5069276;28;20443;-67
2023/03/09 02:14:26;;;;;;;1999.90;999.90;;;9.90;99.90;;;;;;5068839;28;20482;-67
2023/03/09 02:16:53;;;;;;;1999.90;999.90;;;9.90;99.90;;;;;;5069098;28;20881;-67
2023/03/09 02:19:47;;;;;;;1999.90;999.90;;;9.90;99.90;;;;;;5069460;28;20453;-68
2023/03/09 02:22:14;;;;;;;1999.90;999.90;;;9.90;99.90;;;;;;5069552;28;20443;-67
2023/03/09 02:24:58;;;;;;;1999.90;999.90;;;9.90;99.90;;;;;;5069200;28;20526;-67
2023/03/09 02:27:33;;;;;;;1999.90;999.90;;;9.80;99.90;;;;;;5069402;28;20481;-67
2023/03/09 02:30:00;;;;;;;1999.90;999.90;;;9.90;99.90;;;;;;5069251;28;20447;-67
2023/03/09 02:32:30;;;;;;;1999.90;999.90;;;10.00;99.90;;;;;;5069539;28;20451;-67
2023/03/09 02:34:56;;;;;;;1999.90;999.90;;;10.10;99.90;;;;;;5069609;28;20486;-67
2023/03/09 02:37:25;;;;;;;1999.90;999.90;;;10.10;99.90;;;;;;5073036;28;20443;-67
2023/03/09 02:39:56;;;;;;;1999.90;999.90;;;10.10;99.90;;;;;;5072694;28;20443;-68
2023/03/09 02:42:23;;;;;;;1999.90;999.90;;;10.10;99.90;;;;;;5072715;28;20937;-66
2023/03/09 02:44:52;;;;;;;1999.90;999.90;;;10.20;99.90;;;;;;5072838;28;20472;-67
2023/03/09 02:47:21;;;;;;;1999.90;999.90;;;10.10;99.90;;;;;;5072579;28;20476;-67
2023/03/09 02:49:48;;;;;;;1999.90;999.90;;;10.20;99.90;;;;;;5072828;28;20830;-68
2023/03/09 02:52:15;;;;;;;1999.90;999.90;;;10.10;99.90;;;;;;5072270;28;20449;-67
2023/03/09 02:54:42;;;;;;;1999.90;999.90;;;10.10;99.90;;;;;;5072459;28;20477;-67
2023/03/09 02:57:09;;;;;;;1999.90;999.90;;;10.10;99.90;;;;;;5072331;28;20450;-67
2023/03/09 02:59:36;;;;;;;1999.90;999.90;;;10.10;99.90;;;;;;5072909;28;20575;-66
2023/03/09 03:02:04;;;;;;;1999.90;999.90;;;10.10;99.90;;;;;;5072159;28;20442;-67
2023/03/09 03:04:31;;;;;;;1999.90;999.90;;;10.10;99.90;;;;;;5071665;28;20923;-68
2023/03/09 03:06:58;;;;;;;1999.90;999.90;;;10.10;99.90;;;;;;5072407;28;20452;-66
2023/03/09 03:09:25;;;;;;;1999.90;999.90;;;10.00;99.90;;;;;;5072071;28;20446;-67
2023/03/09 03:11:52;;;;;;;1999.90;999.90;;;10.00;99.90;;;;;;5072269;28;20455;-67
2023/03/09 03:14:19;;;;;;;1999.90;999.90;;;9.90;99.90;;;;;;5071648;28;21161;-68
2023/03/09 03:16:46;;;;;;;1999.90;999.90;;;9.90;99.90;;;;;;5072181;28;20458;-67
2023/03/09 03:19:14;;;;;;;1999.90;999.90;;;9.80;99.90;;;;;;5072224;28;20454;-66
2023/03/09 03:21:41;;;;;;;1999.90;999.90;;;9.80;99.90;;;;;;5071946;28;20435;-67
2023/03/09 03:24:08;;;;;;;1999.90;999.90;;;9.80;99.90;;;;;;5071691;28;20467;-67
2023/03/09 03:26:34;;;;;;;1999.90;999.90;;;9.80;99.90;;;;;;5071957;28;20451;-67
2023/03/09 03:29:02;;;;;;;1999.90;999.90;;;9.80;99.90;;;;;;5071896;28;20487;-67
2023/03/09 03:31:29;;;;;;;1999.90;999.90;;;9.80;99.90;;;;;;5072231;28;20447;-67
2023/03/09 03:33:56;;;;;;;1999.90;999.90;;;9.80;99.90;;;;;;5071712;28;20463;-65
2023/03/09 03:36:24;;;;;;;1999.90;999.90;;;9.70;99.90;;;;;;5072153;28;20869;-68
2023/03/09 03:38:51;;;;;;;1999.90;999.90;;;9.70;99.90;;;;;;5071932;28;20955;-68
2023/03/09 03:41:18;;;;;;;1999.90;999.90;;;9.60;99.90;;;;;;5072086;28;20451;-68
2023/03/09 03:43:44;;;;;;;1999.90;999.90;;;9.50;99.90;;;;;;5071283;28;20479;-67
2023/03/09 03:46:11;;;;;;;1999.90;999.90;;;9.50;99.90;;;;;;5071337;28;20451;-68
2023/03/09 03:48:38;;;;;;;1999.90;999.90;;;9.40;99.90;;;;;;5071704;28;20483;-66
2023/03/09 03:51:06;;;;;;;1999.90;999.90;;;9.40;99.90;;;;;;5071604;28;20832;-67
2023/03/09 03:53:34;;;;;;;1999.90;999.90;;;9.40;99.90;;;;;;5071514;28;20532;-66
2023/03/09 03:56:02;;;;;;;1999.90;999.90;;;9.30;99.90;;;;;;5071066;28;20550;-65
2023/03/09 03:58:29;;;;;;;1999.90;999.90;;;9.30;99.90;;;;;;5071466;28;20557;-67
2023/03/09 04:00:57;;;;;;;1999.90;999.90;;;9.40;99.90;;;;;;5071224;28;20455;-67
2023/03/09 04:03:23;;;;;;;1999.90;999.90;;;9.40;99.90;;;;;;5071009;28;20470;-67
2023/03/09 04:05:50;;;;;;;1999.90;999.90;;;9.40;99.90;;;;;;5071234;28;20450;-67
2023/03/09 04:08:17;;;;;;;1999.90;999.90;;;9.50;99.90;;;;;;5071170;28;20865;-68
2023/03/09 04:10:45;;;;;;;1999.90;999.90;;;9.50;99.90;;;;;;5071489;28;20447;-68
2023/03/09 04:13:12;;;;;;;1999.90;999.90;;;9.60;99.90;;;;;;5070627;28;20470;-68
2023/03/09 04:15:39;;;;;;;1999.90;999.90;;;9.60;99.90;;;;;;5071275;28;20451;-67
2023/03/09 04:18:06;;;;;;;1999.90;999.90;;;9.70;99.90;;;;;;5070887;28;20443;-67
2023/03/09 04:20:33;;;;;;;1999.90;999.90;;;9.80;99.90;;;;;;5071115;28;20451;-68
2023/03/09 04:23:00;;;;;;;1999.90;999.90;;;9.70;99.90;;;;;;5070652;28;20818;-67
2023/03/09 04:25:27;;;;;;;1999.90;999.90;;;9.70;99.90;;;;;;5070969;28;20471;-67
2023/03/09 04:27:56;;;;;;;1999.90;999.90;;;9.70;99.90;;;;;;5071137;28;20850;-67
2023/03/09 04:30:23;;;;;;;1999.90;999.90;;;9.60;99.90;;;;;;5070970;28;20442;-68
2023/03/09 04:32:50;;;;;;;1999.90;999.90;;;9.70;99.90;;;;;;5070562;28;20443;-67
2023/03/09 04:35:18;;;;;;;1999.90;999.90;;;9.80;99.90;;;;;;5070953;28;20471;-68
2023/03/09 04:37:45;;;;;;;1999.90;999.90;;;9.80;99.90;;;;;;5071287;28;20443;-67
2023/03/09 04:40:13;;;;;;;1999.90;999.90;;;9.80;99.90;;;;;;5070931;28;20447;-67
2023/03/09 04:42:40;;;;;;;1999.90;999.90;;;9.80;99.90;;;;;;5069944;28;20933;-68
2023/03/09 04:45:09;;;;;;;1999.90;999.90;;;9.80;99.90;;;;;;5070614;28;21000;-67
2023/03/09 04:47:35;;;;;;;1999.90;999.90;;;9.80;99.90;;;;;;5070048;28;20482;-67
2023/03/09 04:50:02;;;;;;;1999.90;999.90;;;9.80;99.90;;;;;;5070666;28;20443;-67
2023/03/09 04:52:30;;;;;;;1999.90;999.90;;;9.80;99.90;;;;;;5070029;28;20447;-68
2023/03/09 04:54:57;;;;;;;1999.90;999.90;;;9.90;99.90;;;;;;5070305;28;20479;-68
2023/03/09 04:57:23;;;;;;;1999.90;999.90;;;9.80;99.90;;;;;;5069942;28;20952;-67
2023/03/09 04:59:50;;;;;;;1999.90;999.90;;;9.80;99.90;;;;;;5069586;28;20447;-68
2023/03/09 05:02:18;;;;;;;1999.90;999.90;;;9.90;99.90;;;;;;5070273;28;20443;-68
2023/03/09 05:04:45;;;;;;;1999.90;999.90;;;9.90;99.90;;;;;;5069687;28;20467;-68
2023/03/09 05:07:12;;;;;;;1999.90;999.90;;;9.90;99.90;;;;;;5070566;28;20453;-68
2023/03/09 05:09:39;;;;;;;1999.90;999.90;;;9.90;99.90;;;;;;5070251;28;20483;-68
2023/03/09 05:12:06;;;;;;;1999.90;999.90;;;9.90;99.90;;;;;;5069936;28;20444;-67
2023/03/09 05:14:32;;;;;;;1999.90;999.90;;;9.90;99.90;;;;;;5069848;28;20495;-69
2023/03/09 05:17:00;;;;;;;1999.90;999.90;;;9.90;99.90;;;;;;5069851;28;20462;-67
2023/03/09 05:19:28;;;;;;;1999.90;999.90;;;9.90;99.90;;;;;;5070223;28;20516;-68
2023/03/09 05:21:55;;;;;;;1999.90;999.90;;;9.90;99.90;;;;;;5069954;28;20841;-69
2023/03/09 05:24:22;;;;;;;1999.90;999.90;;;9.80;99.90;;;;;;5069779;28;20470;-68
2023/03/09 05:26:48;;;;;;;1999.90;999.90;;;9.80;99.90;;;;;;5069737;28;20471;-68
2023/03/09 05:29:15;;;;;;;1999.90;999.90;;;9.80;99.90;;;;;;5069789;28;20841;-68
2023/03/09 05:31:42;;;;;;;1999.90;999.90;;;9.80;99.90;;;;;;5070265;28;20447;-68
2023/03/09 05:34:09;;;;;;;1999.90;999.90;;;9.80;99.90;;;;;;5069113;28;20510;-68
2023/03/09 05:36:37;;;;;;;1999.90;999.90;;;9.80;99.90;;;;;;5069876;28;20451;-68
2023/03/09 05:39:04;;;;;;;1999.90;999.90;;;9.80;99.90;;;;;;5069614;28;20474;-68
2023/03/09 05:41:31;;;;;;;1999.90;999.90;;;9.80;99.90;;;;;;5069617;28;20447;-68
2023/03/09 05:43:59;;;;;;;1999.90;999.90;;;9.90;99.90;;;;;;5069300;28;20467;-68
2023/03/09 05:46:26;;;;;;;1999.90;999.90;;;10.00;99.90;;;;;;5069339;28;20458;-68
2023/03/09 05:48:53;;;;;;;1999.90;999.90;;;10.00;99.90;;;;;;5069762;28;20486;-69
2023/03/09 05:51:20;;;;;;;1999.90;999.90;;;10.00;99.90;;;;;;5069484;28;20447;-68
2023/03/09 05:53:48;;;;;;;1999.90;999.90;;;10.10;99.90;;;;;;5069248;28;20471;-68
2023/03/09 05:56:15;;;;;;;1999.90;999.90;;;10.10;99.90;;;;;;5069203;28;20454;-66
2023/03/09 05:58:42;;;;;;;1999.90;999.90;;;10.00;99.90;;;;;;5069806;28;20447;-67
2023/03/09 06:01:18;;;;;;;1999.90;999.90;;;10.00;99.90;;;;;;5069668;28;20481;-67
2023/03/09 06:03:45;;;;;;;1999.90;999.90;;;10.00;99.90;;;;;;5068847;28;20843;-70
2023/03/09 06:06:12;;;;;;;1999.90;999.90;;;10.10;99.90;;;;;;5069319;28;20458;-70
2023/03/09 06:08:39;;;;;;;1999.90;999.90;;;10.10;99.90;;;;;;5068248;28;20516;-68
2023/03/09 06:11:07;;;;;;;1999.90;999.90;;;10.10;99.90;;;;;;5073455;28;20933;-68
2023/03/09 06:13:34;;;;;;;1999.90;999.90;;;10.10;99.90;;;;;;5073173;28;20502;-68
2023/03/09 06:16:03;;;;;;;1999.90;999.90;;;10.10;99.90;;;;;;5073443;28;20458;-68
2023/03/09 06:18:30;;;;;;;1999.90;999.90;;;10.10;99.90;;;;;;5073522;28;20443;-69
2023/03/09 06:21:01;;;;;;;1999.90;999.90;;;10.10;99.90;;;;;;5052540;28;20444;-67
2023/03/09 06:23:28;;;;;;;1999.90;999.90;;;10.10;99.90;;;;;;5053582;28;20472;-69
2023/03/09 06:25:55;;;;;;;1999.90;999.90;;;10.10;99.90;;;;;;5053434;28;20831;-68
2023/03/09 06:28:23;;;;;;;1999.90;999.90;;;10.10;99.90;;;;;;5053581;28;20566;-65
2023/03/09 06:30:50;;;;;;;1999.90;999.90;;;10.20;99.90;;;;;;5053157;28;20451;-69
2023/03/09 06:33:17;;;;;;;1999.90;999.90;;;10.20;99.90;;;;;;5052743;28;20960;-67
2023/03/09 06:35:44;;;;;;;1999.90;999.90;;;10.20;99.90;;;;;;5052866;28;20448;-68
2023/03/09 06:38:11;;;;;;;1999.90;999.90;;;10.30;99.90;;;;;;5053215;28;20499;-67
2023/03/09 06:40:38;;;;;;;1999.90;999.90;;;10.40;99.90;;;;;;5053233;28;20444;-67
2023/03/09 06:43:05;;;;;;;1999.90;999.90;;;10.40;99.90;;;;;;5052344;28;20454;-67
2023/03/09 06:45:33;;;;;;;1999.90;999.90;;;10.50;99.90;;;;;;5052994;28;20525;-67
2023/03/09 06:48:00;;;;;;;1999.90;999.90;;;10.60;99.90;;;;;;5052728;28;20941;-68
2023/03/09 06:50:27;;;;;;;1999.90;999.90;;;10.60;99.90;;;;;;5052712;28;20957;-67
2023/03/09 06:52:54;;;;;;;1999.90;999.90;;;10.50;99.90;;;;;;5053225;28;20515;-66
2023/03/09 06:55:21;;;;;;;1999.90;999.90;;;10.50;99.90;;;;;;5071692;28;20877;-67
2023/03/09 06:57:48;;;;;;;1999.90;999.90;;;10.40;99.90;;;;;;5071374;28;20449;-66
2023/03/09 07:00:15;;;;;;;1999.90;999.90;;;10.40;99.90;;;;;;5069703;28;20451;-66
2023/03/09 07:02:43;;;;;;;1999.90;999.90;;;10.40;99.90;;;;;;5069503;28;20454;-66
2023/03/09 07:05:10;;;;;;;1999.90;999.90;;;10.40;99.90;;;;;;5070994;28;20470;-66
2023/03/09 07:07:37;;;;;;;1999.90;999.90;;;10.50;99.90;;;;;;5071654;28;20872;-66
2023/03/09 07:10:05;;;;;;;1999.90;999.90;;;10.50;99.90;;;;;;5071147;28;20866;-67
2023/03/09 07:12:32;;;;;;;1999.90;999.90;;;10.60;99.90;;;;;;5071252;28;20455;-67
2023/03/09 07:14:59;;;;;;;1999.90;999.90;;;10.60;99.90;;;;;;5070975;28;21043;-65
2023/03/09 07:17:26;;;;;;;1999.90;999.90;;;10.70;99.90;;;;;;5071108;28;20527;-67
2023/03/09 07:19:54;;;;;;;1999.90;999.90;;;10.90;99.90;;;;;;5071579;28;20443;-66
2023/03/09 07:22:21;;;;;;;1999.90;999.90;;;11.10;99.90;;;;;;5069859;28;20458;-66
2023/03/09 07:24:48;;;;;;;1999.90;999.90;;;11.20;99.90;;;;;;5071165;28;20478;-66
2023/03/09 07:27:15;;;;;;;1999.90;999.90;;;11.30;99.90;;;;;;5071257;28;20443;-67
2023/03/09 07:29:42;;;;;;;1999.90;999.90;;;11.30;99.90;;;;;;5071378;28;21008;-66
2023/03/09 07:32:09;;;;;;;1999.90;999.90;;;11.40;99.90;;;;;;5070531;28;20455;-67
2023/03/09 07:34:36;;;;;;;1999.90;999.90;;;11.40;99.90;;;;;;5070267;28;20999;-72
2023/03/09 07:37:04;;;;;;;1999.90;999.90;;;11.50;99.90;;;;;;5067107;28;20450;-66
2023/03/09 07:39:31;;;;;;;1999.90;999.90;;;11.60;99.90;;;;;;5065570;28;20448;-66
2023/03/09 07:41:58;;;;;;;1999.90;999.90;;;11.70;99.90;;;;;;5069192;28;20466;-66
2023/03/09 07:44:25;;;;;;;1999.90;999.90;;;11.80;99.90;;;;;;5069824;28;20992;-66
2023/03/09 07:46:52;;;;;;;1999.90;999.90;;;12.00;99.90;;;;;;5070627;28;20537;-66
2023/03/09 07:49:19;;;;;;;1999.90;999.90;;;12.20;99.90;;;;;;5070552;28;20494;-66
2023/03/09 07:51:46;;;;;;;1999.90;999.90;;;12.30;99.90;;;;;;5070343;28;20492;-65
2023/03/09 07:54:14;;;;;;;1999.90;999.90;;;12.40;99.90;;;;;;5069960;28;20478;-66
2023/03/09 07:56:41;;;;;;;1999.90;999.90;;;12.40;99.90;;;;;;5070239;28;20957;-66
2023/03/09 07:59:15;;;;;;;1999.90;999.90;;;12.50;99.90;;;;;;5070628;28;20447;-67
2023/03/09 08:01:42;;;;;;;1999.90;999.90;;;12.90;99.90;;;;;;5070606;28;21041;-66
2023/03/09 08:04:09;;;;;;;1999.90;999.90;;;13.20;99.90;;;;;;5070113;28;20463;-66
2023/03/09 08:06:39;;;;;;;1999.90;999.90;;;13.40;99.90;;;;;;5070191;28;20451;-67
2023/03/09 08:09:07;;;;;;;1999.90;999.90;;;13.40;99.90;;;;;;5070239;28;21019;-66
2023/03/09 08:11:35;;;;;;;1999.90;999.90;;;13.40;99.90;;;;;;5069939;28;20451;-66
2023/03/09 08:14:02;;;;;;;1999.90;999.90;;;13.30;99.90;;;;;;5069376;28;21004;-66
2023/03/09 08:16:28;;;;;;;1999.90;999.90;;;13.20;99.90;;;;;;5069948;28;20903;-66
2023/03/09 08:18:55;;;;;;;1999.90;999.90;;;13.20;99.90;;;;;;5070300;28;20455;-65
2023/03/09 08:21:22;;;;;;;1999.90;999.90;;;13.10;99.90;;;;;;5070043;28;20447;-65
2023/03/09 08:23:50;;;;;;;1999.90;999.90;;;13.10;99.90;;;;;;5069252;28;21008;-65
2023/03/09 08:26:17;;;;;;;1999.90;999.90;;;13.10;99.90;;;;;;5069878;28;21189;-65
2023/03/09 08:28:46;;;;;;;1999.90;999.90;;;13.00;99.90;;;;;;5069887;28;20509;-66
2023/03/09 08:31:16;;;;;;;1999.90;999.90;;;13.00;99.90;;;;;;5069862;28;20447;-66
2023/03/09 08:33:43;;;;;;;1999.90;999.90;;;13.00;99.90;;;;;;5069103;28;20474;-66
2023/03/09 08:36:12;;;;;;;1999.90;999.90;;;12.90;99.90;;;;;;5069706;28;20822;-65
2023/03/09 08:38:39;;;;;;;1999.90;999.90;;;13.00;99.90;;;;;;5017861;28;20455;-65
2023/03/09 08:41:06;;;;;;;1999.90;999.90;;;13.00;99.90;;;;;;5070052;28;20542;-66
2023/03/09 08:43:33;;;;;;;1999.90;999.90;;;13.10;99.90;;;;;;5069193;28;20477;-65
2023/03/09 08:46:02;;;;;;;1999.90;999.90;;;13.00;99.90;;;;;;5066681;28;20448;-64
2023/03/09 08:48:28;;;;;;;1999.90;999.90;;;12.90;99.90;;;;;;5070522;28;20439;-64
2023/03/09 08:50:56;;;;;;;1999.90;999.90;;;12.80;99.90;;;;;;5070611;28;20462;-64
2023/03/09 08:53:23;;;;;;;1999.90;999.90;;;12.80;99.90;;;;;;5070029;28;20451;-68
2023/03/09 08:55:51;;;;;;;1999.90;999.90;;;12.70;99.90;;;;;;5070430;28;20821;-67
2023/03/09 08:58:18;;;;;;;1999.90;999.90;;;12.90;99.90;;;;;;5070446;28;20504;-67
2023/03/09 09:00:45;;;;;;;1999.90;999.90;;;13.10;99.90;;;;;;5069517;28;20443;-68
2023/03/09 09:03:13;;;;;;;1999.90;999.90;;;13.30;99.90;;;;;;5069373;28;20452;-67
2023/03/09 09:05:40;;;;;;;1999.90;999.90;;;13.10;99.90;;;;;;5067100;28;20470;-67
2023/03/09 09:08:06;;;;;;;1999.90;999.90;;;12.90;99.90;;;;;;5068119;28;20951;-68
2023/03/09 09:10:34;;;;;;;1999.90;999.90;;;12.70;99.90;;;;;;5068091;28;20490;-67
2023/03/09 09:13:01;;;;;;;1999.90;999.90;;;12.50;99.90;;;;;;5062243;28;20459;-66
2023/03/09 09:15:28;;;;;;;1999.90;999.90;;;12.30;99.90;;;;;;5064377;28;21115;-66
2023/03/09 09:17:55;;;;;;;1999.90;999.90;;;12.40;99.90;;;;;;5068051;28;20442;-67
2023/03/09 09:20:23;;;;;;;1999.90;999.90;;;12.50;99.90;;;;;;5070340;28;20470;-66
2023/03/09 09:22:50;;;;;;;1999.90;999.90;;;12.50;99.90;;;;;;5068394;28;20458;-66
2023/03/09 09:25:17;;;;;;;1999.90;999.90;;;12.50;99.90;;;;;;5062610;28;20470;-67
2023/03/09 09:27:44;;;;;;;1999.90;999.90;;;12.60;99.90;;;;;;5069452;28;20470;-66
2023/03/09 09:30:12;;;;;;;1999.90;999.90;;;12.60;99.90;;;;;;5068513;28;20475;-67
2023/03/09 09:32:40;;;;;;;1999.90;999.90;;;12.70;99.90;;;;;;5067189;28;20454;-67
2023/03/09 09:35:07;;;;;;;1999.90;999.90;;;12.70;99.90;;;;;;5067199;28;20566;-67
2023/03/09 09:37:35;;;;;;;1999.90;999.90;;;12.80;99.90;;;;;;5068664;28;20493;-66
2023/03/09 09:40:02;;;;;;;1999.90;999.90;;;12.80;99.90;;;;;;5067665;28;20451;-68
2023/03/09 09:42:33;;;;;;;1999.90;999.90;;;12.80;99.90;;;;;;5067951;28;20466;-69
2023/03/09 09:45:03;;;;;;;1999.90;999.90;;;12.90;99.90;;;;;;5067924;28;20494;-71
2023/03/09 09:47:31;;;;;;;1999.90;999.90;;;13.10;99.90;;;;;;5068314;28;20833;-68
2023/03/09 09:50:01;;;;;;;1999.90;999.90;;;13.30;99.90;;;;;;5063383;28;20486;-69
2023/03/09 09:52:46;;;;;;;1999.90;999.90;;;13.40;99.90;;;;;;5062594;28;20520;-67
2023/03/09 09:55:20;;;;;;;1999.90;999.90;;;13.30;99.90;;;;;;5060779;28;20463;-69
2023/03/09 09:57:52;;;;;;;1999.90;999.90;;;13.20;99.90;;;;;;5065370;28;20529;-69
2023/03/09 10:00:22;;;;;;;1999.90;999.90;;;13.20;99.90;;;;;;5067504;28;20447;-68
2023/03/09 10:03:05;;;;;;;1999.90;999.90;;;13.20;99.90;;;;;;5070561;28;20439;-66
2023/03/09 10:05:40;;;;;;;1999.90;999.90;;;13.10;99.90;;;;;;5060145;28;20458;-68
2023/03/09 10:08:20;;;;;;;1999.90;999.90;;;13.20;99.90;;;;;;5067758;28;20451;-69
2023/03/09 10:10:49;;;;;;;1999.90;999.90;;;13.20;99.90;;;;;;5066691;28;20871;-69
2023/03/09 10:13:21;;;;;;;1999.90;999.90;;;13.30;99.90;;;;;;5061577;28;20494;-69
2023/03/09 10:15:49;;;;;;;1999.90;999.90;;;13.30;99.90;;;;;;5065305;28;20439;-68
2023/03/09 10:18:22;;;;;;;1999.90;999.90;;;13.40;99.90;;;;;;5063110;28;20436;-69
2023/03/09 10:20:52;;;;;;;1999.90;999.90;;;13.40;99.90;;;;;;5055668;28;20860;-67
2023/03/09 10:23:27;;;;;;;1999.90;999.90;;;13.20;99.90;;;;;;5064502;28;20534;-67
2023/03/09 10:26:16;;;;;;;1999.90;999.90;;;13.00;99.90;;;;;;5067119;28;20435;-69
2023/03/09 10:28:45;;;;;;;1999.90;999.90;;;12.90;99.90;;;;;;5064635;28;20450;-68
2023/03/09 10:31:18;;;;;;;1999.90;999.90;;;12.70;99.90;;;;;;5065666;28;20839;-68
2023/03/09 10:33:47;;;;;;;1999.90;999.90;;;12.60;99.90;;;;;;5067380;28;20459;-68
2023/03/09 10:36:22;;;;;;;1999.90;999.90;;;12.50;99.90;;;;;;5058746;28;20441;-68
2023/03/09 10:38:52;;;;;;;1999.90;999.90;;;12.40;99.90;;;;;;5064565;28;20450;-68
2023/03/09 10:41:21;;;;;;;1999.90;999.90;;;12.40;99.90;;;;;;5064427;28;20443;-69
2023/03/09 10:43:48;;;;;;;1999.90;999.90;;;12.40;99.90;;;;;;5065295;28;20467;-68
2023/03/09 10:46:18;;;;;;;1999.90;999.90;;;12.70;99.90;;;;;;5063701;28;20463;-68
2023/03/09 10:48:46;;;;;;;1999.90;999.90;;;13.20;99.90;;;;;;5067007;28;20445;-68
2023/03/09 10:51:26;;;;;;;1999.90;999.90;;;13.60;99.90;;;;;;5066771;28;20483;-71
2023/03/09 10:53:56;;;;;;;1999.90;999.90;;;13.90;99.90;;;;;;5064196;28;20467;-71
2023/03/09 10:56:24;;;;;;;1999.90;999.90;;;14.10;99.90;;;;;;5067154;28;20529;-69
2023/03/09 10:59:13;;;;;;;1999.90;999.90;;;14.30;99.90;;;;;;5068429;28;20446;-69
2023/03/09 11:01:42;;;;;;;1999.90;999.90;;;14.70;99.90;;;;;;5068819;28;20446;-68
2023/03/09 11:04:36;;;;;;;1999.90;999.90;;;15.00;99.90;;;;;;5069625;28;20451;-67
2023/03/09 11:07:04;;;;;;;1999.90;999.90;;;15.20;99.90;;;;;;5069517;28;20442;-67
2023/03/09 11:09:35;;;;;;;1999.90;999.90;;;15.10;99.90;;;;;;5067836;28;20435;-70
2023/03/09 11:12:11;;;;;;;1999.90;999.90;;;15.00;99.90;;;;;;5067031;28;20988;-70
2023/03/09 11:14:44;;;;;;;1999.90;999.90;;;14.90;99.90;;;;;;5068722;28;20469;-69
2023/03/09 11:17:33;;;;;;;1999.90;999.90;;;14.70;99.90;;;;;;5065160;28;20470;-68
2023/03/09 11:20:23;;;;;;;1999.90;999.90;;;14.70;99.90;;;;;;5071411;28;20443;-69
2023/03/09 11:22:55;;;;;;;1999.90;999.90;;;14.50;99.90;;;;;;5065844;28;20443;-68
2023/03/09 11:25:35;;;;;;;1999.90;999.90;;;14.70;99.90;;;;;;5066140;28;21228;-68
2023/03/09 11:28:12;;;;;;;1999.90;999.90;;;15.20;99.90;;;;;;5069789;28;20459;-68
2023/03/09 11:30:40;;;;;;;1999.90;999.90;;;15.10;99.90;;;;;;5066550;28;20509;-69
2023/03/09 11:33:11;;;;;;;1999.90;999.90;;;14.60;99.90;;;;;;5066879;28;20477;-68
2023/03/09 11:35:38;;;;;;;1999.90;999.90;;;14.60;99.90;;;;;;5069132;28;20495;-66
2023/03/09 11:38:10;;;;;;;1999.90;999.90;;;14.90;99.90;;;;;;5067635;28;20445;-67
2023/03/09 11:40:41;;;;;;;1999.90;999.90;;;14.90;99.90;;;;;;5067800;28;20439;-68
2023/03/09 11:43:13;;;;;;;1999.90;999.90;;;14.90;99.90;;;;;;5067931;28;20521;-68
2023/03/09 11:45:41;;;;;;;1999.90;999.90;;;14.80;99.90;;;;;;5067317;28;20432;-68
2023/03/09 11:48:19;;;;;;;1999.90;999.90;;;14.70;99.90;;;;;;5068140;28;20454;-69
2023/03/09 11:50:53;;;;;;;1999.90;999.90;;;15.30;99.90;;;;;;5069853;28;20481;-68
2023/03/09 11:53:25;;;;;;;1999.90;999.90;;;16.10;99.90;;;;;;5071415;28;20449;-67
2023/03/09 11:55:58;;;;;;;1999.90;999.90;;;16.40;99.90;;;;;;5078938;28;20450;-68
2023/03/09 11:58:30;;;;;;;1999.90;999.90;;;16.30;99.90;;;;;;5075470;28;20530;-69
2023/03/09 12:01:07;;;;;;;1999.90;999.90;;;15.80;99.90;;;;;;5071085;28;20450;-67
2023/03/09 12:03:42;;;;;;;1999.90;999.90;;;16.20;99.90;;;;;;5069144;28;20473;-67
2023/03/09 12:06:25;;;;;;;1999.90;999.90;;;16.00;99.90;;;;;;5066067;28;20435;-67
2023/03/09 12:08:54;;;;;;;1999.90;999.90;;;16.00;99.90;;;;;;5068654;28;20663;-68
2023/03/09 12:11:27;;;;;;;1999.90;999.90;;;16.40;99.90;;;;;;5070706;28;20475;-69